Wetterstation Vordersexau
Wetterdaten: Woche 10.07.23 - 16.07.23 (KW28)
Datum Zeit Temp. A. Feuchte A. Luftdruck Regen Wind Richtung Taupunkt Windchill Windben
10.07.2023 00:00 24,5 C 60 % 1013,3 hPa 0,0 l/m 0,0 km/h (0 Bft) O 16,2 C 24,5 C 2,5 km/h (1 Bft)
10.07.2023 01:00 22,5 C 69 % 1014,0 hPa 0,0 l/m 1,1 km/h (1 Bft) O 16,5 C 22,5 C 2,5 km/h (1 Bft)
10.07.2023 02:00 22,1 C 68 % 1014,0 hPa 0,0 l/m 1,1 km/h (1 Bft) O-NO 15,9 C 22,1 C 2,5 km/h (1 Bft)
10.07.2023 03:00 21,2 C 69 % 1014,5 hPa 0,0 l/m 1,1 km/h (1 Bft) SO 15,3 C 21,2 C 3,6 km/h (1 Bft)
10.07.2023 04:00 21,8 C 69 % 1015,0 hPa 0,0 l/m 2,5 km/h (1 Bft) N 15,9 C 21,8 C 3,6 km/h (1 Bft)
10.07.2023 05:00 21,8 C 68 % 1015,3 hPa 0,0 l/m 0,0 km/h (0 Bft) O-SO 15,6 C 21,8 C 2,5 km/h (1 Bft)
10.07.2023 06:00 21,3 C 78 % 1016,2 hPa 0,0 l/m 2,5 km/h (1 Bft) SO 17,3 C 21,3 C 3,6 km/h (1 Bft)
10.07.2023 07:00 20,2 C 88 % 1017,2 hPa 0,6 l/m 1,1 km/h (1 Bft) N 18,1 C 20,2 C 3,6 km/h (1 Bft)
10.07.2023 08:00 19,6 C 95 % 1017,2 hPa 1,8 l/m 0,0 km/h (0 Bft) N 18,8 C 19,6 C 2,5 km/h (1 Bft)
10.07.2023 09:00 20,8 C 94 % 1017,4 hPa 0,0 l/m 0,0 km/h (0 Bft) S-SO 19,8 C 20,8 C 2,5 km/h (1 Bft)
10.07.2023 10:00 23,0 C 85 % 1017,5 hPa 0,0 l/m 1,1 km/h (1 Bft) W-SW 20,3 C 23,0 C 2,5 km/h (1 Bft)
10.07.2023 11:00 25,1 C 79 % 1017,5 hPa 0,0 l/m 2,5 km/h (1 Bft) W-SW 21,2 C 25,1 C 3,6 km/h (1 Bft)
10.07.2023 12:00 27,8 C 66 % 1017,3 hPa 0,0 l/m 8,6 km/h (2 Bft) S-SW 20,8 C 27,5 C 11,2 km/h (2 Bft)
10.07.2023 13:00 29,4 C 58 % 1017,1 hPa 0,0 l/m 3,6 km/h (1 Bft) W 20,3 C 29,4 C 7,2 km/h (2 Bft)
10.07.2023 14:00 30,3 C 54 % 1016,5 hPa 0,0 l/m 6,1 km/h (2 Bft) SO 19,9 C 30,3 C 9,7 km/h (2 Bft)
10.07.2023 15:00 31,0 C 50 % 1016,2 hPa 0,0 l/m 6,1 km/h (2 Bft) W 19,3 C 31,0 C 9,7 km/h (2 Bft)
10.07.2023 16:00 32,3 C 46 % 1015,7 hPa 0,0 l/m 6,1 km/h (2 Bft) W-SW 19,2 C 32,3 C 11,2 km/h (2 Bft)
10.07.2023 17:00 32,5 C 47 % 1015,1 hPa 0,0 l/m 3,6 km/h (1 Bft) W-SW 19,7 C 32,5 C 6,1 km/h (2 Bft)
10.07.2023 18:00 32,1 C 46 % 1014,8 hPa 0,0 l/m 7,2 km/h (2 Bft) SW 19,0 C 32,1 C 9,7 km/h (2 Bft)
10.07.2023 19:00 31,6 C 47 % 1014,4 hPa 0,0 l/m 5,0 km/h (1 Bft) W-NW 18,9 C 31,6 C 6,1 km/h (2 Bft)
10.07.2023 20:00 30,9 C 48 % 1014,3 hPa 0,0 l/m 2,5 km/h (1 Bft) N-NO 18,6 C 30,9 C 3,6 km/h (1 Bft)
10.07.2023 21:00 29,4 C 56 % 1014,3 hPa 0,0 l/m 2,5 km/h (1 Bft) N 19,7 C 29,4 C 2,5 km/h (1 Bft)
10.07.2023 22:00 25,6 C 72 % 1014,3 hPa 0,0 l/m 0,0 km/h (0 Bft) N-NO 20,2 C 25,6 C 0,0 km/h (0 Bft)
10.07.2023 23:00 23,5 C 78 % 1014,5 hPa 0,0 l/m 1,1 km/h (1 Bft) N 19,4 C 23,5 C 2,5 km/h (1 Bft)
11.07.2023 00:00 21,8 C 82 % 1014,5 hPa 0,0 l/m 0,0 km/h (0 Bft) N-NO 18,6 C 21,8 C 0,0 km/h (0 Bft)
11.07.2023 01:00 21,2 C 84 % 1014,4 hPa 0,0 l/m 1,1 km/h (1 Bft) N-NO 18,4 C 21,2 C 2,5 km/h (1 Bft)
11.07.2023 02:00 20,7 C 84 % 1014,1 hPa 0,0 l/m 1,1 km/h (1 Bft) N-NO 17,9 C 20,7 C 2,5 km/h (1 Bft)
11.07.2023 03:00 19,6 C 86 % 1013,9 hPa 0,0 l/m 1,1 km/h (1 Bft) N-NO 17,2 C 19,6 C 2,5 km/h (1 Bft)
11.07.2023 04:00 18,9 C 87 % 1013,8 hPa 0,0 l/m 1,1 km/h (1 Bft) N-NO 16,7 C 18,9 C 2,5 km/h (1 Bft)
11.07.2023 05:00 18,2 C 90 % 1013,0 hPa 0,0 l/m 1,1 km/h (1 Bft) N-NO 16,5 C 18,2 C 2,5 km/h (1 Bft)
11.07.2023 06:00 18,2 C 90 % 1012,9 hPa 0,0 l/m 1,1 km/h (1 Bft) N 16,5 C 18,2 C 2,5 km/h (1 Bft)
11.07.2023 07:00 18,2 C 90 % 1012,6 hPa 0,0 l/m 0,0 km/h (0 Bft) N-NO 16,5 C 18,2 C 0,0 km/h (0 Bft)
11.07.2023 08:00 20,5 C 84 % 1012,5 hPa 0,0 l/m 1,1 km/h (1 Bft) N 17,7 C 20,5 C 6,1 km/h (2 Bft)
11.07.2023 09:00 23,4 C 75 % 1012,1 hPa 0,0 l/m 0,0 km/h (0 Bft) O-SO 18,7 C 23,4 C 0,0 km/h (0 Bft)
11.07.2023 10:00 25,5 C 69 % 1011,8 hPa 0,0 l/m 2,5 km/h (1 Bft) W-NW 19,4 C 25,5 C 6,1 km/h (2 Bft)
11.07.2023 11:00 28,6 C 60 % 1011,4 hPa 0,0 l/m 1,1 km/h (1 Bft) NO 20,1 C 28,6 C 3,6 km/h (1 Bft)
11.07.2023 12:00 30,6 C 56 % 1010,7 hPa 0,0 l/m 1,1 km/h (1 Bft) W 20,8 C 30,6 C 3,6 km/h (1 Bft)
11.07.2023 13:00 33,3 C 46 % 1010,0 hPa 0,0 l/m 3,6 km/h (1 Bft) W-SW 20,1 C 33,3 C 9,7 km/h (2 Bft)
11.07.2023 14:00 34,4 C 49 % 1009,3 hPa 0,0 l/m 1,1 km/h (1 Bft) W 22,1 C 34,4 C 3,6 km/h (1 Bft)
11.07.2023 15:00 35,3 C 46 % 1008,4 hPa 0,0 l/m 7,2 km/h (2 Bft) W 21,9 C 35,3 C 13,3 km/h (3 Bft)
11.07.2023 16:00 35,0 C 41 % 1008,1 hPa 0,0 l/m 14,8 km/h (3 Bft) W 19,7 C 35,0 C 20,9 km/h (4 Bft)
11.07.2023 17:00 36,4 C 36 % 1007,3 hPa 0,0 l/m 9,7 km/h (2 Bft) W-SW 18,9 C 36,4 C 17,3 km/h (3 Bft)
11.07.2023 18:00 36,0 C 38 % 1006,5 hPa 0,0 l/m 8,6 km/h (2 Bft) SO 19,4 C 36,0 C 13,3 km/h (3 Bft)
11.07.2023 19:00 36,4 C 28 % 1005,6 hPa 0,0 l/m 6,1 km/h (2 Bft) N 14,9 C 36,4 C 7,2 km/h (2 Bft)
11.07.2023 20:00 35,5 C 31 % 1003,1 hPa 0,0 l/m 0,0 km/h (0 Bft) NO 15,7 C 35,5 C 2,5 km/h (1 Bft)
11.07.2023 21:00 30,5 C 47 % 1002,2 hPa 0,0 l/m 2,5 km/h (1 Bft) S-SW 17,9 C 30,5 C 3,6 km/h (1 Bft)
11.07.2023 22:00 22,9 C 82 % 1009,5 hPa 0,9 l/m 29,5 km/h (5 Bft) O-NO 19,7 C 18,8 C 46,4 km/h (6 Bft)
11.07.2023 23:00 20,0 C 96 % 1009,8 hPa 9,0 l/m 1,1 km/h (1 Bft) N 19,3 C 20,0 C 2,5 km/h (1 Bft)
12.07.2023 00:00 19,6 C 94 % 1007,9 hPa 2,1 l/m 0,0 km/h (0 Bft) N 18,6 C 19,6 C 2,5 km/h (1 Bft)
12.07.2023 01:00 19,3 C 98 % 1008,2 hPa 0,0 l/m 0,0 km/h (0 Bft) SO 19,0 C 19,3 C 0,0 km/h (0 Bft)
12.07.2023 02:00 19,2 C 98 % 1008,6 hPa 1,2 l/m 1,1 km/h (1 Bft) SO 18,9 C 19,2 C 2,5 km/h (1 Bft)
12.07.2023 03:00 19,2 C 98 % 1008,1 hPa 0,6 l/m 2,5 km/h (1 Bft) N 18,9 C 19,2 C 6,1 km/h (2 Bft)
12.07.2023 04:00 19,4 C 98 % 1007,9 hPa 0,0 l/m 0,0 km/h (0 Bft) N 19,1 C 19,4 C 0,0 km/h (0 Bft)
12.07.2023 05:00 19,2 C 99 % 1007,7 hPa 0,0 l/m 0,0 km/h (0 Bft) N 19,0 C 19,2 C 2,5 km/h (1 Bft)
12.07.2023 06:00 19,5 C 99 % 1007,8 hPa 0,0 l/m 0,0 km/h (0 Bft) W-SW 19,3 C 19,5 C 0,0 km/h (0 Bft)
12.07.2023 07:00 20,3 C 99 % 1009,1 hPa 0,0 l/m 6,1 km/h (2 Bft) S-SW 20,1 C 20,3 C 9,7 km/h (2 Bft)
12.07.2023 08:00 22,0 C 87 % 1009,2 hPa 0,0 l/m 3,6 km/h (1 Bft) W 19,7 C 22,0 C 6,1 km/h (2 Bft)
12.07.2023 09:00 22,4 C 87 % 1009,1 hPa 0,0 l/m 3,6 km/h (1 Bft) W 20,1 C 22,4 C 6,1 km/h (2 Bft)
12.07.2023 10:00 23,4 C 82 % 1009,1 hPa 0,0 l/m 8,6 km/h (2 Bft) S-SW 20,1 C 22,8 C 11,2 km/h (2 Bft)
12.07.2023 11:00 25,4 C 70 % 1009,6 hPa 0,0 l/m 7,2 km/h (2 Bft) S-SW 19,5 C 25,2 C 11,2 km/h (2 Bft)
12.07.2023 12:00 24,9 C 72 % 1009,7 hPa 0,0 l/m 5,0 km/h (1 Bft) W 19,5 C 24,9 C 6,1 km/h (2 Bft)
12.07.2023 13:00 26,0 C 67 % 1009,5 hPa 0,0 l/m 2,5 km/h (1 Bft) W 19,4 C 26,0 C 6,1 km/h (2 Bft)
12.07.2023 14:00 26,8 C 63 % 1009,2 hPa 0,0 l/m 11,2 km/h (2 Bft) S-SW 19,1 C 26,0 C 17,3 km/h (3 Bft)
12.07.2023 15:00 27,7 C 57 % 1009,2 hPa 0,0 l/m 9,7 km/h (2 Bft) SW 18,4 C 27,2 C 17,3 km/h (3 Bft)
12.07.2023 16:00 28,6 C 57 % 1009,1 hPa 0,0 l/m 13,3 km/h (3 Bft) W-SW 19,2 C 27,8 C 17,3 km/h (3 Bft)
12.07.2023 17:00 27,0 C 62 % 1008,7 hPa 0,0 l/m 9,7 km/h (2 Bft) W-NW 19,1 C 26,4 C 14,8 km/h (3 Bft)
12.07.2023 18:00 26,6 C 54 % 1009,1 hPa 0,0 l/m 5,0 km/h (1 Bft) W 16,5 C 26,6 C 9,7 km/h (2 Bft)
12.07.2023 19:00 27,0 C 54 % 1009,1 hPa 0,0 l/m 2,5 km/h (1 Bft) NW 16,9 C 27,0 C 7,2 km/h (2 Bft)
12.07.2023 20:00 25,7 C 55 % 1008,9 hPa 0,0 l/m 2,5 km/h (1 Bft) N-NW 16,0 C 25,7 C 3,6 km/h (1 Bft)
12.07.2023 21:00 24,7 C 58 % 1009,3 hPa 0,0 l/m 2,5 km/h (1 Bft) N 15,9 C 24,7 C 3,6 km/h (1 Bft)
12.07.2023 22:00 22,3 C 73 % 1009,8 hPa 0,0 l/m 0,0 km/h (0 Bft) W-NW 17,2 C 22,3 C 0,0 km/h (0 Bft)
12.07.2023 23:00 20,9 C 76 % 1010,0 hPa 0,0 l/m 1,1 km/h (1 Bft) N 16,5 C 20,9 C 2,5 km/h (1 Bft)
13.07.2023 00:00 20,1 C 81 % 1010,9 hPa 0,0 l/m 0,0 km/h (0 Bft) W-NW 16,7 C 20,1 C 0,0 km/h (0 Bft)
13.07.2023 01:00 19,9 C 85 % 1012,2 hPa 0,0 l/m 1,1 km/h (1 Bft) N 17,3 C 19,9 C 2,5 km/h (1 Bft)
13.07.2023 02:00 19,7 C 83 % 1012,1 hPa 0,0 l/m 0,0 km/h (0 Bft) N 16,7 C 19,7 C 0,0 km/h (0 Bft)
13.07.2023 03:00 19,2 C 86 % 1012,4 hPa 0,0 l/m 0,0 km/h (0 Bft) N 16,8 C 19,2 C 2,5 km/h (1 Bft)
13.07.2023 04:00 18,6 C 88 % 1012,1 hPa 0,0 l/m 0,0 km/h (0 Bft) N 16,6 C 18,6 C 0,0 km/h (0 Bft)
13.07.2023 05:00 17,8 C 88 % 1012,0 hPa 0,0 l/m 0,0 km/h (0 Bft) N 15,8 C 17,8 C 2,5 km/h (1 Bft)
13.07.2023 06:00 17,3 C 88 % 1012,3 hPa 0,0 l/m 0,0 km/h (0 Bft) N 15,3 C 17,3 C 0,0 km/h (0 Bft)
13.07.2023 07:00 16,8 C 89 % 1012,6 hPa 0,0 l/m 0,0 km/h (0 Bft) W-NW 15,0 C 16,8 C 0,0 km/h (0 Bft)
13.07.2023 08:00 17,3 C 86 % 1013,2 hPa 0,0 l/m 1,1 km/h (1 Bft) N 14,9 C 17,3 C 2,5 km/h (1 Bft)
13.07.2023 09:00 19,3 C 76 % 1013,7 hPa 0,0 l/m 0,0 km/h (0 Bft) S-SW 15,0 C 19,3 C 2,5 km/h (1 Bft)
13.07.2023 10:00 21,7 C 64 % 1013,8 hPa 0,0 l/m 3,6 km/h (1 Bft) SW 14,6 C 21,7 C 6,1 km/h (2 Bft)
13.07.2023 11:00 23,2 C 56 % 1013,9 hPa 0,0 l/m 2,5 km/h (1 Bft) NW 13,9 C 23,2 C 3,6 km/h (1 Bft)
13.07.2023 12:00 24,6 C 46 % 1013,9 hPa 0,0 l/m 3,6 km/h (1 Bft) W 12,2 C 24,6 C 7,2 km/h (2 Bft)
13.07.2023 13:00 25,0 C 47 % 1013,8 hPa 0,0 l/m 3,6 km/h (1 Bft) W 12,9 C 25,0 C 7,2 km/h (2 Bft)
13.07.2023 14:00 26,4 C 46 % 1013,9 hPa 0,0 l/m 1,1 km/h (1 Bft) O-NO 13,8 C 26,4 C 3,6 km/h (1 Bft)
13.07.2023 15:00 26,4 C 45 % 1013,6 hPa 0,0 l/m 2,5 km/h (1 Bft) W 13,5 C 26,4 C 7,2 km/h (2 Bft)
13.07.2023 16:00 25,7 C 45 % 1013,4 hPa 0,0 l/m 7,2 km/h (2 Bft) W 12,9 C 25,5 C 11,2 km/h (2 Bft)
13.07.2023 17:00 26,7 C 44 % 1013,6 hPa 0,0 l/m 3,6 km/h (1 Bft) N-NO 13,4 C 26,7 C 7,2 km/h (2 Bft)
13.07.2023 18:00 25,9 C 42 % 1013,4 hPa 0,0 l/m 2,5 km/h (1 Bft) W-SW 12,0 C 25,9 C 6,1 km/h (2 Bft)
13.07.2023 19:00 25,0 C 43 % 1013,4 hPa 0,0 l/m 3,6 km/h (1 Bft) N 11,5 C 25,0 C 3,6 km/h (1 Bft)
13.07.2023 20:00 25,5 C 44 % 1013,5 hPa 0,0 l/m 0,0 km/h (0 Bft) N 12,3 C 25,5 C 3,6 km/h (1 Bft)
13.07.2023 21:00 24,3 C 47 % 1013,7 hPa 0,0 l/m 2,5 km/h (1 Bft) N-NO 12,3 C 24,3 C 3,6 km/h (1 Bft)
13.07.2023 22:00 21,3 C 59 % 1014,0 hPa 0,0 l/m 1,1 km/h (1 Bft) O-NO 13,0 C 21,3 C 2,5 km/h (1 Bft)
13.07.2023 23:00 19,6 C 67 % 1014,5 hPa 0,0 l/m 1,1 km/h (1 Bft) O-SO 13,3 C 19,6 C 3,6 km/h (1 Bft)
14.07.2023 00:00 18,5 C 71 % 1014,8 hPa 0,0 l/m 2,5 km/h (1 Bft) O-SO 13,1 C 18,5 C 6,1 km/h (2 Bft)
14.07.2023 01:00 17,2 C 74 % 1015,0 hPa 0,0 l/m 1,1 km/h (1 Bft) N 12,5 C 17,2 C 2,5 km/h (1 Bft)
14.07.2023 02:00 15,9 C 79 % 1014,8 hPa 0,0 l/m 0,0 km/h (0 Bft) O-SO 12,3 C 15,9 C 2,5 km/h (1 Bft)
14.07.2023 03:00 15,4 C 80 % 1014,5 hPa 0,0 l/m 2,5 km/h (1 Bft) SO 12,0 C 15,4 C 6,1 km/h (2 Bft)
14.07.2023 04:00 14,6 C 82 % 1014,1 hPa 0,0 l/m 2,5 km/h (1 Bft) O 11,6 C 14,6 C 3,6 km/h (1 Bft)
14.07.2023 05:00 14,3 C 83 % 1014,1 hPa 0,0 l/m 2,5 km/h (1 Bft) N 11,5 C 14,3 C 3,6 km/h (1 Bft)
14.07.2023 06:00 12,9 C 89 % 1013,7 hPa 0,0 l/m 0,0 km/h (0 Bft) N 11,1 C 12,9 C 0,0 km/h (0 Bft)
14.07.2023 07:00 12,8 C 90 % 1013,3 hPa 0,0 l/m 0,0 km/h (0 Bft) N 11,2 C 12,8 C 2,5 km/h (1 Bft)
14.07.2023 08:00 15,3 C 81 % 1013,4 hPa 0,0 l/m 0,0 km/h (0 Bft) O 12,1 C 15,3 C 0,0 km/h (0 Bft)
14.07.2023 09:00 17,8 C 71 % 1012,9 hPa 0,0 l/m 1,1 km/h (1 Bft) N-NW 12,5 C 17,8 C 2,5 km/h (1 Bft)
14.07.2023 10:00 20,1 C 63 % 1012,6 hPa 0,0 l/m 1,1 km/h (1 Bft) W-NW 12,8 C 20,1 C 2,5 km/h (1 Bft)
14.07.2023 11:00 22,1 C 62 % 1012,3 hPa 0,0 l/m 1,1 km/h (1 Bft) W-NW 14,5 C 22,1 C 2,5 km/h (1 Bft)
14.07.2023 12:00 23,2 C 57 % 1012,0 hPa 0,0 l/m 2,5 km/h (1 Bft) N 14,2 C 23,2 C 6,1 km/h (2 Bft)
14.07.2023 13:00 24,7 C 54 % 1011,1 hPa 0,0 l/m 3,6 km/h (1 Bft) W-SW 14,8 C 24,7 C 3,6 km/h (1 Bft)
14.07.2023 14:00 25,7 C 52 % 1010,6 hPa 0,0 l/m 3,6 km/h (1 Bft) W 15,1 C 25,7 C 6,1 km/h (2 Bft)
14.07.2023 15:00 27,7 C 49 % 1010,0 hPa 0,0 l/m 2,5 km/h (1 Bft) SW 16,0 C 27,7 C 6,1 km/h (2 Bft)
14.07.2023 16:00 28,6 C 46 % 1009,2 hPa 0,0 l/m 8,6 km/h (2 Bft) W-SW 15,8 C 28,3 C 13,3 km/h (3 Bft)
14.07.2023 17:00 29,7 C 43 % 1007,9 hPa 0,0 l/m 1,1 km/h (1 Bft) N-NO 15,8 C 29,7 C 3,6 km/h (1 Bft)
14.07.2023 18:00 29,7 C 41 % 1007,4 hPa 0,0 l/m 2,5 km/h (1 Bft) N-NO 15,0 C 29,7 C 6,1 km/h (2 Bft)
14.07.2023 19:00 30,1 C 41 % 1006,3 hPa 0,0 l/m 2,5 km/h (1 Bft) W-SW 15,4 C 30,1 C 3,6 km/h (1 Bft)
14.07.2023 20:00 28,3 C 46 % 1006,5 hPa 0,0 l/m 3,6 km/h (1 Bft) N 15,6 C 28,3 C 6,1 km/h (2 Bft)
14.07.2023 21:00 26,7 C 54 % 1006,2 hPa 0,0 l/m 0,0 km/h (0 Bft) W-SW 16,6 C 26,7 C 0,0 km/h (0 Bft)
14.07.2023 22:00 23,2 C 67 % 1006,0 hPa 0,0 l/m 2,5 km/h (1 Bft) N 16,7 C 23,2 C 3,6 km/h (1 Bft)
14.07.2023 23:00 21,6 C 71 % 1006,9 hPa 0,0 l/m 0,0 km/h (0 Bft) N-NO 16,1 C 21,6 C 0,0 km/h (0 Bft)
15.07.2023 00:00 20,0 C 77 % 1007,4 hPa 0,0 l/m 1,1 km/h (1 Bft) N-NO 15,8 C 20,0 C 2,5 km/h (1 Bft)
15.07.2023 01:00 19,5 C 76 % 1007,4 hPa 0,0 l/m 1,1 km/h (1 Bft) N 15,2 C 19,5 C 3,6 km/h (1 Bft)
15.07.2023 02:00 18,3 C 80 % 1007,2 hPa 0,0 l/m 0,0 km/h (0 Bft) NO 14,8 C 18,3 C 2,5 km/h (1 Bft)
15.07.2023 03:00 18,6 C 77 % 1007,0 hPa 0,0 l/m 1,1 km/h (1 Bft) NO 14,5 C 18,6 C 2,5 km/h (1 Bft)
15.07.2023 04:00 18,5 C 75 % 1006,8 hPa 0,0 l/m 1,1 km/h (1 Bft) O-NO 14,0 C 18,5 C 2,5 km/h (1 Bft)
15.07.2023 05:00 18,5 C 74 % 1006,6 hPa 0,0 l/m 1,1 km/h (1 Bft) SO 13,8 C 18,5 C 2,5 km/h (1 Bft)
15.07.2023 06:00 18,1 C 75 % 1006,0 hPa 0,0 l/m 1,1 km/h (1 Bft) N 13,6 C 18,1 C 3,6 km/h (1 Bft)
15.07.2023 07:00 18,5 C 73 % 1006,1 hPa 0,0 l/m 0,0 km/h (0 Bft) N 13,6 C 18,5 C 2,5 km/h (1 Bft)
15.07.2023 08:00 20,8 C 68 % 1005,7 hPa 0,0 l/m 0,0 km/h (0 Bft) O-SO 14,7 C 20,8 C 0,0 km/h (0 Bft)
15.07.2023 09:00 24,1 C 62 % 1005,3 hPa 0,0 l/m 5,0 km/h (1 Bft) O 16,4 C 24,1 C 6,1 km/h (2 Bft)
15.07.2023 10:00 30,0 C 45 % 1004,9 hPa 0,0 l/m 2,5 km/h (1 Bft) W 16,7 C 30,0 C 3,6 km/h (1 Bft)
15.07.2023 11:00 30,6 C 51 % 1004,9 hPa 0,0 l/m 6,1 km/h (2 Bft) N 19,3 C 30,6 C 9,7 km/h (2 Bft)
15.07.2023 12:00 31,0 C 51 % 1005,9 hPa 0,0 l/m 5,0 km/h (1 Bft) W 19,6 C 31,0 C 7,2 km/h (2 Bft)
15.07.2023 13:00 30,2 C 46 % 1006,0 hPa 0,0 l/m 6,1 km/h (2 Bft) W-SW 17,3 C 30,2 C 9,7 km/h (2 Bft)
15.07.2023 14:00 30,4 C 46 % 1005,4 hPa 0,0 l/m 6,1 km/h (2 Bft) W 17,5 C 30,4 C 9,7 km/h (2 Bft)
15.07.2023 15:00 32,1 C 42 % 1004,8 hPa 0,0 l/m 7,2 km/h (2 Bft) W 17,5 C 32,1 C 11,2 km/h (2 Bft)
15.07.2023 16:00 31,0 C 47 % 1004,9 hPa 0,0 l/m 6,1 km/h (2 Bft) W 18,3 C 31,0 C 9,7 km/h (2 Bft)
15.07.2023 17:00 32,2 C 45 % 1004,7 hPa 0,0 l/m 5,0 km/h (1 Bft) W-SW 18,7 C 32,2 C 9,7 km/h (2 Bft)
15.07.2023 18:00 32,6 C 44 % 1004,9 hPa 0,0 l/m 11,2 km/h (2 Bft) SW 18,7 C 32,5 C 17,3 km/h (3 Bft)
15.07.2023 19:00 32,4 C 45 % 1004,2 hPa 0,0 l/m 3,6 km/h (1 Bft) W-SW 18,9 C 32,4 C 6,1 km/h (2 Bft)
15.07.2023 20:00 30,6 C 50 % 1003,9 hPa 0,0 l/m 2,5 km/h (1 Bft) O-SO 19,0 C 30,6 C 3,6 km/h (1 Bft)
15.07.2023 21:00 25,7 C 68 % 1004,5 hPa 0,0 l/m 5,0 km/h (1 Bft) O-SO 19,3 C 25,7 C 9,7 km/h (2 Bft)
15.07.2023 22:00 21,8 C 94 % 1006,2 hPa 3,9 l/m 2,5 km/h (1 Bft) SW 20,8 C 21,8 C 3,6 km/h (1 Bft)
15.07.2023 23:00 21,2 C 97 % 1007,9 hPa 12,9 l/m 2,5 km/h (1 Bft) S-SO 20,7 C 21,2 C 3,6 km/h (1 Bft)
16.07.2023 00:00 20,9 C 98 % 1008,4 hPa 0,9 l/m 2,5 km/h (1 Bft) S-SO 20,6 C 20,9 C 3,6 km/h (1 Bft)
16.07.2023 01:00 21,0 C 94 % 1010,4 hPa 0,0 l/m 5,0 km/h (1 Bft) S 20,0 C 21,0 C 7,2 km/h (2 Bft)
16.07.2023 02:00 20,0 C 94 % 1011,7 hPa 0,0 l/m 3,6 km/h (1 Bft) W 19,0 C 20,0 C 3,6 km/h (1 Bft)
16.07.2023 03:00 18,3 C 88 % 1012,1 hPa 0,3 l/m 11,2 km/h (2 Bft) W 16,3 C 16,3 C 14,8 km/h (3 Bft)
16.07.2023 04:00 17,2 C 88 % 1012,7 hPa 0,6 l/m 8,6 km/h (2 Bft) W-SW 15,2 C 16,1 C 11,2 km/h (2 Bft)
16.07.2023 05:00 16,7 C 86 % 1012,7 hPa 0,0 l/m 9,7 km/h (2 Bft) S-SW 14,3 C 15,1 C 13,3 km/h (3 Bft)
16.07.2023 06:00 16,2 C 89 % 1012,9 hPa 0,0 l/m 1,1 km/h (1 Bft) S-SO 14,4 C 16,2 C 2,5 km/h (1 Bft)
16.07.2023 07:00 16,4 C 87 % 1013,7 hPa 0,0 l/m 3,6 km/h (1 Bft) S 14,2 C 16,4 C 6,1 km/h (2 Bft)
16.07.2023 08:00 17,0 C 86 % 1013,6 hPa 0,0 l/m 3,6 km/h (1 Bft) SW 14,6 C 17,0 C 6,1 km/h (2 Bft)
16.07.2023 09:00 18,4 C 79 % 1013,8 hPa 0,0 l/m 6,1 km/h (2 Bft) W-SW 14,7 C 18,4 C 9,7 km/h (2 Bft)
16.07.2023 10:00 19,1 C 78 % 1014,1 hPa 0,0 l/m 6,1 km/h (2 Bft) W-SW 15,2 C 19,1 C 7,2 km/h (2 Bft)
16.07.2023 11:00 20,3 C 72 % 1014,0 hPa 0,0 l/m 7,2 km/h (2 Bft) S-SW 15,1 C 20,0 C 9,7 km/h (2 Bft)
16.07.2023 12:00 21,8 C 66 % 1014,1 hPa 0,0 l/m 8,6 km/h (2 Bft) W 15,2 C 21,0 C 11,2 km/h (2 Bft)
16.07.2023 13:00 22,3 C 59 % 1014,2 hPa 0,0 l/m 7,2 km/h (2 Bft) W-SW 13,9 C 22,0 C 11,2 km/h (2 Bft)
16.07.2023 14:00 22,4 C 59 % 1014,0 hPa 0,0 l/m 11,2 km/h (2 Bft) W 14,0 C 21,0 C 22,0 km/h (4 Bft)
16.07.2023 15:00 24,4 C 55 % 1013,6 hPa 0,0 l/m 12,2 km/h (2 Bft) W-SW 14,8 C 23,1 C 18,4 km/h (3 Bft)
16.07.2023 16:00 24,3 C 56 % 1013,4 hPa 0,0 l/m 8,6 km/h (2 Bft) W 14,9 C 23,7 C 11,2 km/h (2 Bft)
16.07.2023 17:00 24,8 C 50 % 1013,1 hPa 0,0 l/m 6,1 km/h (2 Bft) W 13,7 C 24,8 C 7,2 km/h (2 Bft)
16.07.2023 18:00 25,9 C 48 % 1012,6 hPa 0,0 l/m 8,6 km/h (2 Bft) W-SW 14,0 C 25,4 C 14,8 km/h (3 Bft)
16.07.2023 19:00 25,3 C 48 % 1012,4 hPa 0,0 l/m 7,2 km/h (2 Bft) W 13,5 C 25,1 C 9,7 km/h (2 Bft)
16.07.2023 20:00 24,9 C 51 % 1012,4 hPa 0,0 l/m 5,0 km/h (1 Bft) W 14,1 C 24,9 C 7,2 km/h (2 Bft)
16.07.2023 21:00 23,4 C 54 % 1012,6 hPa 0,0 l/m 5,0 km/h (1 Bft) W-SW 13,6 C 23,4 C 6,1 km/h (2 Bft)
16.07.2023 22:00 22,1 C 62 % 1013,0 hPa 0,0 l/m 2,5 km/h (1 Bft) W-SW 14,5 C 22,1 C 2,5 km/h (1 Bft)
16.07.2023 23:00 21,4 C 63 % 1013,6 hPa 0,0 l/m 2,5 km/h (1 Bft) W-SW 14,1 C 21,4 C 3,6 km/h (1 Bft)
Min-Datum _ 14.07.23 11.07.23 11.07.23 - 10.07.23 - 14.07.23 14.07.23 10.07.23
_ Min-Zeit 07:21 19:21 21:21 - 00:21 - 06:21 07:21 22:21
Minimum _ 12,8 C 28 % 1002,2 hPa - 0,0 km/h (0 Bft) - 11,1 C 12,8 C 0,0 km/h (0 Bft)
Max-Datum _ 11.07.23 12.07.23 10.07.23 15.07.23 11.07.23 - 11.07.23 11.07.23 11.07.23
_ Max-Zeit 17:21 05:21 10:21 23:21 22:21 - 14:21 17:21 22:21
Maximum _ 36,4 C 99 % 1017,5 hPa 12,9 l/m 29,5 km/h
O-NO (5 Bft)
- 22,1 C 36,4 C 46,4 km/h
O-NO (6 Bft)
Durchschnitt _ 23,6 C 67 % 1011,1 hPa #34,8 l/m 3,5 km/h (1 Bft) W 16,6 C 23,5 C 5,9 km/h (2 Bft)
www.sexauwetter.de